createdAt,value
2018-02-12T00:00:27.758Z,90.00
2018-02-12T00:02:55.869Z,89.90
2018-02-12T00:05:24.358Z,89.80
2018-02-12T00:07:52.504Z,89.80
2018-02-12T00:10:20.613Z,89.50
2018-02-12T00:12:48.749Z,89.60
2018-02-12T00:15:16.886Z,89.40
2018-02-12T00:17:45.830Z,89.50
2018-02-12T00:20:13.967Z,89.50
2018-02-12T00:22:42.075Z,89.50
2018-02-12T00:25:10.221Z,89.30
2018-02-12T00:27:38.364Z,89.60
2018-02-12T00:30:06.523Z,89.50
2018-02-12T00:32:34.631Z,89.60
2018-02-12T00:35:02.761Z,89.20
2018-02-12T00:37:31.647Z,88.90
2018-02-12T00:39:59.752Z,88.90
2018-02-12T00:42:27.891Z,89.20
2018-02-12T00:44:56.011Z,89.10
2018-02-12T00:47:24.182Z,88.80
2018-02-12T00:49:52.335Z,88.40
2018-02-12T00:52:20.485Z,88.60
2018-02-12T00:54:49.368Z,88.80
2018-02-12T00:57:17.482Z,88.70
2018-02-12T00:59:45.661Z,88.50
2018-02-12T01:02:13.774Z,88.60
2018-02-12T01:04:41.924Z,88.80
2018-02-12T01:07:10.038Z,88.80
2018-02-12T01:09:38.933Z,88.60
2018-02-12T01:12:07.844Z,88.60
2018-02-12T01:14:36.010Z,88.60
2018-02-12T01:17:04.886Z,88.30
2018-02-12T01:19:33.768Z,88.40
2018-02-12T01:22:01.956Z,88.40
2018-02-12T01:24:30.837Z,88.30
2018-02-12T01:26:59.727Z,88.30
2018-02-12T01:29:28.615Z,88.40
2018-02-12T01:31:56.781Z,88.40
2018-02-12T01:34:25.700Z,88.20
2018-02-12T01:36:54.587Z,88.30
2018-02-12T01:39:22.718Z,88.30
2018-02-12T01:41:50.850Z,88.10
2018-02-12T01:44:19.015Z,88.00
2018-02-12T01:46:47.114Z,87.90
2018-02-12T01:49:15.256Z,87.80
2018-02-12T01:51:43.370Z,88.10
2018-02-12T01:54:11.520Z,88.00
2018-02-12T01:56:39.625Z,88.10
2018-02-12T01:59:09.368Z,88.10
2018-02-12T02:01:38.267Z,88.30
2018-02-12T02:04:06.384Z,88.30
2018-02-12T02:06:34.538Z,88.40
2018-02-12T02:09:02.726Z,88.40
2018-02-12T02:11:30.914Z,88.40
2018-02-12T02:13:59.021Z,88.00
2018-02-12T02:16:27.159Z,88.00
2018-02-12T02:18:55.292Z,88.00
2018-02-12T02:21:23.411Z,88.20
2018-02-12T02:23:51.550Z,88.30
2018-02-12T02:26:19.804Z,88.50
2018-02-12T02:28:47.988Z,88.50
2018-02-12T02:31:16.098Z,88.50
2018-02-12T02:33:44.226Z,88.40
2018-02-12T02:36:12.366Z,88.50
2018-02-12T02:38:41.257Z,87.80
2018-02-12T02:41:10.275Z,88.00
2018-02-12T02:43:39.250Z,87.60
2018-02-12T02:46:07.396Z,87.60
2018-02-12T02:48:35.587Z,87.40
2018-02-12T02:51:04.499Z,87.60
2018-02-12T02:53:32.634Z,87.60
2018-02-12T02:56:01.540Z,87.40
2018-02-12T02:58:29.646Z,87.40
2018-02-12T03:00:57.793Z,87.60
2018-02-12T03:03:26.679Z,87.00
2018-02-12T03:05:55.619Z,87.20
2018-02-12T03:08:23.718Z,87.20
2018-02-12T03:10:52.715Z,86.80
2018-02-12T03:13:20.857Z,86.90
2018-02-12T03:15:49.007Z,87.00
2018-02-12T03:18:17.912Z,86.50
2018-02-12T03:20:46.013Z,86.50
2018-02-12T03:23:14.147Z,86.80
2018-02-12T03:25:42.263Z,86.80
2018-02-12T03:28:10.389Z,87.00
2018-02-12T03:30:38.548Z,87.40
2018-02-12T03:33:06.683Z,87.40
2018-02-12T03:35:34.828Z,87.60
2018-02-12T03:38:03.045Z,87.50
2018-02-12T03:40:31.186Z,87.40
2018-02-12T03:42:59.321Z,87.60
2018-02-12T03:45:27.443Z,87.70
2018-02-12T03:47:55.582Z,87.90
2018-02-12T03:50:23.689Z,88.00
2018-02-12T03:52:52.610Z,88.10
2018-02-12T03:55:20.721Z,88.10
2018-02-12T03:57:48.863Z,88.00
2018-02-12T04:00:17.013Z,87.90
2018-02-12T04:02:45.893Z,87.50
2018-02-12T04:05:14.788Z,87.40
2018-02-12T04:07:43.669Z,87.30
2018-02-12T04:10:12.602Z,87.20
2018-02-12T04:12:40.709Z,87.10
2018-02-12T04:15:08.851Z,86.90
2018-02-12T04:17:37.014Z,87.10
2018-02-12T04:20:05.267Z,87.10
2018-02-12T04:22:34.141Z,87.10
2018-02-12T04:25:03.125Z,87.10
2018-02-12T04:27:31.333Z,87.00
2018-02-12T04:29:59.452Z,87.20
2018-02-12T04:32:27.574Z,87.00
2018-02-12T04:34:55.690Z,86.80
2018-02-12T04:37:23.829Z,87.00
2018-02-12T04:39:51.941Z,86.90
2018-02-12T04:42:20.083Z,86.90
2018-02-12T04:44:48.203Z,87.00
2018-02-12T04:47:16.328Z,87.00
2018-02-12T04:49:44.479Z,87.10
2018-02-12T04:52:12.623Z,87.20
2018-02-12T04:54:40.754Z,86.80
2018-02-12T04:57:08.919Z,86.80
2018-02-12T04:59:37.075Z,86.80
2018-02-12T05:02:05.237Z,86.70
2018-02-12T05:04:34.109Z,86.70
2018-02-12T05:07:02.300Z,86.70
2018-02-12T05:09:31.237Z,86.90
2018-02-12T05:11:59.345Z,86.80
2018-02-12T05:14:28.257Z,86.10
2018-02-12T05:16:57.179Z,86.20
2018-02-12T05:19:25.290Z,86.00
2018-02-12T05:21:53.417Z,86.40
2018-02-12T05:24:21.574Z,85.90
2018-02-12T05:26:50.450Z,85.80
2018-02-12T05:29:19.387Z,86.10
2018-02-12T05:31:47.511Z,86.00
2018-02-12T05:34:16.481Z,86.40
2018-02-12T05:36:45.357Z,86.00
2018-02-12T05:39:13.487Z,86.00
2018-02-12T05:41:41.636Z,85.80
2018-02-12T05:44:10.579Z,84.80
2018-02-12T05:46:38.722Z,84.80
2018-02-12T05:49:06.845Z,84.70
2018-02-12T05:51:34.974Z,85.20
2018-02-12T05:54:03.869Z,84.50
2018-02-12T05:56:31.993Z,84.60
2018-02-12T05:59:01.345Z,85.50
2018-02-12T06:01:29.658Z,85.50
2018-02-12T06:03:58.559Z,86.60
2018-02-12T06:06:27.472Z,86.80
2018-02-12T06:08:56.379Z,86.80
2018-02-12T06:11:24.504Z,86.80
2018-02-12T06:13:53.433Z,87.10
2018-02-12T06:16:21.577Z,87.10
2018-02-12T06:18:50.597Z,87.40
2018-02-12T06:21:18.843Z,87.30
2018-02-12T06:23:47.771Z,88.10
2018-02-12T06:26:15.903Z,88.10
2018-02-12T06:28:44.799Z,88.20
2018-02-12T06:31:13.852Z,88.00
2018-02-12T06:33:41.965Z,87.90
2018-02-12T06:36:10.987Z,88.00
2018-02-12T06:38:39.120Z,88.10
2018-02-12T06:41:08.026Z,88.30
2018-02-12T06:43:36.233Z,88.10
2018-02-12T06:46:04.370Z,88.40
2018-02-12T06:48:33.262Z,88.70
2018-02-12T06:51:01.403Z,88.80
2018-02-12T06:53:31.088Z,88.40
2018-02-12T06:55:59.186Z,88.50
2018-02-12T06:58:27.325Z,88.50
2018-02-12T07:00:55.446Z,88.70
2018-02-12T07:03:24.342Z,88.40
2018-02-12T07:05:53.355Z,88.50
2018-02-12T07:08:21.545Z,88.50
2018-02-12T07:10:49.674Z,88.30
2018-02-12T07:13:18.335Z,87.60
2018-02-12T07:15:46.490Z,87.70
2018-02-12T07:18:14.617Z,87.50
2018-02-12T07:20:43.505Z,86.70
2018-02-12T07:23:12.409Z,86.70
2018-02-12T07:25:41.328Z,86.80
2018-02-12T07:28:09.446Z,86.80
2018-02-12T07:30:37.583Z,85.90
2018-02-12T07:33:05.722Z,86.30
2018-02-12T07:35:33.846Z,86.20
2018-02-12T07:38:02.003Z,86.10
2018-02-12T07:40:30.174Z,85.50
2018-02-12T07:42:58.307Z,85.40
2018-02-12T07:45:27.208Z,84.90
2018-02-12T07:47:55.349Z,84.90
2018-02-12T07:50:23.481Z,84.90
2018-02-12T07:52:51.630Z,84.90
2018-02-12T07:55:19.758Z,84.50
2018-02-12T07:57:47.869Z,84.50
2018-02-12T08:00:15.990Z,84.00
2018-02-12T08:02:44.135Z,83.10
2018-02-12T08:05:13.026Z,83.50
2018-02-12T08:07:41.898Z,83.50
2018-02-12T08:10:10.821Z,83.80
2018-02-12T08:12:38.965Z,83.70
2018-02-12T08:15:07.104Z,84.80
2018-02-12T08:17:35.586Z,84.40
2018-02-12T08:20:03.959Z,83.80
2018-02-12T08:22:32.113Z,83.50
2018-02-12T08:25:01.009Z,83.30
2018-02-12T08:27:29.240Z,83.20
2018-02-12T08:29:58.124Z,83.40
2018-02-12T08:32:26.282Z,83.40
2018-02-12T08:34:55.175Z,83.00
2018-02-12T08:37:23.301Z,83.00
2018-02-12T08:39:51.416Z,82.40
2018-02-12T08:42:19.596Z,82.80
2018-02-12T08:44:47.762Z,83.20
2018-02-12T08:47:16.650Z,82.00
2018-02-12T08:49:45.540Z,81.10
2018-02-12T08:52:14.432Z,80.20
2018-02-12T08:54:42.563Z,80.20
2018-02-12T08:57:10.791Z,81.10
2018-02-12T08:59:38.930Z,81.10
2018-02-12T09:02:07.096Z,80.80
2018-02-12T09:04:35.207Z,79.40
2018-02-12T09:07:03.345Z,79.10
2018-02-12T09:09:32.262Z,77.00
2018-02-12T09:12:00.391Z,77.00
2018-02-12T09:14:28.543Z,77.00
2018-02-12T09:16:56.675Z,77.60
2018-02-12T09:19:25.577Z,77.20
2018-02-12T09:21:53.697Z,77.20
2018-02-12T09:24:21.840Z,77.00
2018-02-12T09:26:49.971Z,76.00
2018-02-12T09:29:18.870Z,74.80
2018-02-12T09:31:47.768Z,75.40
2018-02-12T09:34:16.657Z,73.80
2018-02-12T09:36:44.784Z,73.80
2018-02-12T09:39:12.916Z,73.50
2018-02-12T09:41:41.079Z,74.10
2018-02-12T09:44:09.209Z,74.40
2018-02-12T09:46:37.381Z,71.40
2018-02-12T09:49:06.310Z,71.50
2018-02-12T09:51:34.437Z,71.20
2018-02-12T09:54:02.589Z,71.30
2018-02-12T09:56:30.739Z,71.90
2018-02-12T09:58:58.880Z,71.50
2018-02-12T10:01:27.792Z,71.00
2018-02-12T10:03:56.685Z,72.10
2018-02-12T10:06:24.837Z,72.20
2018-02-12T10:08:53.726Z,70.70
2018-02-12T10:11:22.639Z,68.70
2018-02-12T10:13:50.781Z,68.60
2018-02-12T10:16:18.889Z,67.40
2018-02-12T10:18:47.053Z,68.40
2018-02-12T10:21:15.979Z,69.70
2018-02-12T10:23:44.129Z,69.70
2018-02-12T10:26:13.028Z,67.90
2018-02-12T10:28:41.156Z,67.90
2018-02-12T10:31:10.077Z,69.20
2018-02-12T10:33:38.198Z,69.20
2018-02-12T10:36:06.369Z,69.30
2018-02-12T10:38:34.495Z,69.00
2018-02-12T10:41:02.641Z,68.20
2018-02-12T10:43:30.765Z,68.70
2018-02-12T10:45:58.877Z,69.20
2018-02-12T10:48:27.808Z,69.90
2018-02-12T10:50:55.952Z,69.80
2018-02-12T10:53:24.840Z,68.90
2018-02-12T10:55:53.731Z,70.50
2018-02-12T10:58:22.661Z,71.20
2018-02-12T11:00:51.180Z,71.30
2018-02-12T11:03:19.401Z,72.10
2018-02-12T11:05:47.531Z,72.50
2018-02-12T11:08:15.686Z,72.60
2018-02-12T11:10:43.805Z,73.20
2018-02-12T11:13:12.687Z,73.90
2018-02-12T11:15:40.830Z,74.00
2018-02-12T11:18:08.947Z,74.30
2018-02-12T11:20:37.084Z,73.80
2018-02-12T11:23:05.290Z,73.40
2018-02-12T11:25:33.429Z,72.20
2018-02-12T11:28:02.390Z,67.50
2018-02-12T11:30:30.525Z,67.50
2018-02-12T11:32:58.669Z,65.20
2018-02-12T11:35:27.571Z,67.10
2018-02-12T11:37:56.496Z,66.90
2018-02-12T11:40:24.612Z,66.90
2018-02-12T11:42:52.766Z,66.80
2018-02-12T11:45:20.903Z,67.10
2018-02-12T11:47:49.030Z,65.70
2018-02-12T11:50:17.192Z,62.30
2018-02-12T11:52:45.303Z,62.80
2018-02-12T11:55:13.448Z,61.80
2018-02-12T11:57:41.583Z,62.30
2018-02-12T12:00:09.726Z,62.80
2018-02-12T12:02:37.902Z,62.30
2018-02-12T12:05:06.061Z,60.90
2018-02-12T12:07:34.232Z,61.50
2018-02-12T12:10:03.105Z,61.20
2018-02-12T12:12:31.422Z,61.20
2018-02-12T12:14:59.524Z,62.40
2018-02-12T12:17:28.442Z,59.20
2018-02-12T12:19:57.335Z,59.00
2018-02-12T12:22:26.232Z,55.70
2018-02-12T12:24:55.116Z,52.90
2018-02-12T12:27:24.012Z,51.60
2018-02-12T12:29:52.917Z,50.90
2018-02-12T12:32:21.044Z,50.90
2018-02-12T12:34:49.208Z,52.00
2018-02-12T12:37:17.323Z,52.30
2018-02-12T12:39:46.216Z,48.40
2018-02-12T12:42:14.377Z,48.30
2018-02-12T12:44:42.660Z,48.80
2018-02-12T12:47:14.904Z,45.90
2018-02-12T12:49:43.014Z,44.40
2018-02-12T12:52:11.351Z,44.60
2018-02-12T12:54:39.471Z,46.20
2018-02-12T12:57:07.605Z,44.10
2018-02-12T12:59:36.527Z,42.30
2018-02-12T13:02:04.664Z,42.20
2018-02-12T13:04:32.993Z,43.60
2018-02-12T13:07:01.130Z,43.20
2018-02-12T13:09:30.027Z,41.70
2018-02-12T13:11:58.923Z,45.50
2018-02-12T13:14:27.796Z,47.50
2018-02-12T13:16:57.064Z,51.10
2018-02-12T13:19:25.256Z,51.20
2018-02-12T13:21:53.393Z,54.30
2018-02-12T13:24:22.292Z,58.30
2018-02-12T13:26:50.451Z,58.10
2018-02-12T13:29:18.586Z,58.10
2018-02-12T13:31:47.505Z,57.60
2018-02-12T13:34:15.694Z,57.60
2018-02-12T13:36:43.821Z,58.50
2018-02-12T13:39:11.987Z,59.30
2018-02-12T13:41:40.915Z,58.80
2018-02-12T13:44:09.048Z,58.70
2018-02-12T13:46:37.941Z,57.70
2018-02-12T13:49:06.132Z,57.60
2018-02-12T13:51:34.332Z,56.90
2018-02-12T13:54:02.483Z,54.70
2018-02-12T13:56:30.677Z,54.10
2018-02-12T13:58:59.630Z,54.20
2018-02-12T14:01:28.561Z,54.00
2018-02-12T14:03:56.693Z,54.00
2018-02-12T14:06:24.845Z,55.70
2018-02-12T14:08:53.014Z,56.10
2018-02-12T14:11:21.158Z,55.40
2018-02-12T14:13:49.304Z,56.40
2018-02-12T14:16:17.430Z,56.60
2018-02-12T14:18:45.578Z,56.50
2018-02-12T14:21:13.696Z,56.20
2018-02-12T14:23:42.623Z,54.30
2018-02-12T14:26:10.753Z,54.30
2018-02-12T14:28:39.652Z,55.40
2018-02-12T14:31:07.831Z,55.40
2018-02-12T14:33:36.727Z,56.50
2018-02-12T14:36:05.603Z,57.70
2018-02-12T14:38:34.528Z,58.10
2018-02-12T14:41:02.684Z,58.10
2018-02-12T14:43:30.806Z,57.60
2018-02-12T14:45:58.930Z,58.30
2018-02-12T14:48:27.069Z,58.50
2018-02-12T14:50:55.959Z,59.00
2018-02-12T14:53:24.871Z,58.70
2018-02-12T14:55:53.754Z,58.00
2018-02-12T14:58:21.894Z,57.90
2018-02-12T15:00:50.040Z,57.30
2018-02-12T15:03:18.168Z,57.60
2018-02-12T15:05:47.116Z,55.70
2018-02-12T15:08:15.351Z,55.70
2018-02-12T15:10:44.315Z,55.70
2018-02-12T15:13:13.228Z,54.60
2018-02-12T15:15:41.404Z,54.50
2018-02-12T15:18:09.547Z,52.90
2018-02-12T15:20:38.465Z,51.30
2018-02-12T15:23:06.606Z,51.30
2018-02-12T15:25:34.717Z,52.60
2018-02-12T15:28:02.862Z,52.80
2018-02-12T15:30:31.810Z,54.70
2018-02-12T15:32:59.946Z,54.70
2018-02-12T15:35:29.864Z,56.30
2018-02-12T15:37:58.754Z,56.80
2018-02-12T15:40:26.981Z,56.10
2018-02-12T15:42:59.803Z,56.00
2018-02-12T15:45:27.955Z,56.30
2018-02-12T15:47:56.818Z,55.90
2018-02-12T15:50:24.980Z,55.80
2018-02-12T15:52:53.101Z,54.70
2018-02-12T15:55:21.250Z,55.20
2018-02-12T15:57:50.206Z,56.40
2018-02-12T16:00:18.305Z,56.50
2018-02-12T16:02:46.493Z,56.70
2018-02-12T16:05:14.618Z,56.60
2018-02-12T16:07:42.796Z,56.70
2018-02-12T16:10:10.930Z,56.80
2018-02-12T16:12:39.086Z,57.70
2018-02-12T16:15:07.978Z,59.50
2018-02-12T16:17:36.871Z,59.00
2018-02-12T16:20:05.778Z,59.10
2018-02-12T16:22:33.957Z,59.00
2018-02-12T16:25:02.931Z,60.00
2018-02-12T16:27:31.083Z,60.00
2018-02-12T16:29:59.199Z,60.10
2018-02-12T16:32:27.345Z,60.90
2018-02-12T16:34:57.357Z,62.20
2018-02-12T16:37:26.240Z,62.90
2018-02-12T16:39:55.127Z,64.20
2018-02-12T16:42:24.042Z,63.70
2018-02-12T16:44:52.214Z,63.80
2018-02-12T16:47:21.075Z,64.90
2018-02-12T16:49:50.001Z,65.40
2018-02-12T16:52:18.130Z,65.40
2018-02-12T16:54:46.263Z,65.40
2018-02-12T16:57:14.388Z,65.40
2018-02-12T16:59:43.328Z,65.70
2018-02-12T17:02:11.478Z,65.60
2018-02-12T17:04:39.673Z,65.80
2018-02-12T17:07:07.811Z,66.40
2018-02-12T17:09:36.698Z,66.50
2018-02-12T17:12:05.607Z,65.90
2018-02-12T17:14:33.738Z,66.00
2018-02-12T17:17:02.672Z,66.20
2018-02-12T17:19:30.812Z,66.20
2018-02-12T17:21:59.708Z,66.10
2018-02-12T17:24:28.644Z,66.70
2018-02-12T17:26:58.337Z,67.00
2018-02-12T17:29:26.484Z,67.00
2018-02-12T17:31:55.389Z,67.30
2018-02-12T17:34:23.548Z,67.30
2018-02-12T17:36:51.740Z,68.10
2018-02-12T17:39:19.956Z,68.30
2018-02-12T17:41:48.836Z,69.30
2018-02-12T17:44:16.973Z,69.20
2018-02-12T17:46:45.158Z,69.70
2018-02-12T17:49:13.308Z,69.40
2018-02-12T17:51:41.441Z,69.70
2018-02-12T17:54:09.612Z,69.80
2018-02-12T17:56:37.769Z,69.80
2018-02-12T17:59:05.903Z,69.70
2018-02-12T18:01:34.825Z,69.50
2018-02-12T18:04:02.963Z,69.50
2018-02-12T18:06:31.883Z,69.20
2018-02-12T18:09:00.081Z,69.20
2018-02-12T18:11:28.181Z,69.70
2018-02-12T18:13:56.329Z,70.10
2018-02-12T18:16:24.467Z,70.00
2018-02-12T18:18:52.614Z,70.20
2018-02-12T18:21:21.547Z,70.00
2018-02-12T18:23:49.701Z,70.10
2018-02-12T18:26:17.872Z,70.20
2018-02-12T18:28:46.014Z,70.70
2018-02-12T18:31:14.928Z,71.50
2018-02-12T18:33:43.089Z,71.50
2018-02-12T18:36:12.001Z,73.40
2018-02-12T18:38:40.141Z,72.80
2018-02-12T18:41:09.028Z,74.40
2018-02-12T18:43:37.927Z,75.50
2018-02-12T18:46:06.886Z,76.20
2018-02-12T18:48:35.034Z,76.20
2018-02-12T18:51:03.144Z,76.90
2018-02-12T18:53:31.272Z,76.70
2018-02-12T18:55:59.437Z,76.90
2018-02-12T18:58:27.629Z,76.70
2018-02-12T19:00:55.774Z,75.80
2018-02-12T19:03:24.690Z,75.70
2018-02-12T19:05:52.862Z,75.60
2018-02-12T19:08:21.066Z,75.40
2018-02-12T19:10:49.209Z,75.50
2018-02-12T19:13:17.342Z,75.20
2018-02-12T19:15:45.492Z,75.10
2018-02-12T19:18:13.650Z,75.50
2018-02-12T19:20:41.842Z,75.50
2018-02-12T19:23:09.995Z,75.70
2018-02-12T19:25:38.138Z,75.40
2018-02-12T19:28:06.279Z,75.60
2018-02-12T19:30:34.428Z,76.00
2018-02-12T19:33:03.347Z,77.70
2018-02-12T19:35:31.495Z,77.70
2018-02-12T19:37:59.973Z,76.40
2018-02-12T19:40:29.025Z,76.60
2018-02-12T19:42:57.389Z,76.60
2018-02-12T19:45:25.614Z,77.10
2018-02-12T19:47:53.837Z,77.30
2018-02-12T19:50:22.083Z,76.80
2018-02-12T19:52:50.973Z,76.70
2018-02-12T19:55:19.142Z,76.60
2018-02-12T19:57:47.345Z,76.20
2018-02-12T20:00:15.529Z,75.80
2018-02-12T20:02:43.703Z,75.90
2018-02-12T20:05:11.919Z,75.90
2018-02-12T20:07:40.092Z,75.90
2018-02-12T20:10:08.305Z,76.00
2018-02-12T20:12:36.442Z,76.30
2018-02-12T20:15:05.433Z,76.30
2018-02-12T20:17:34.470Z,76.40
2018-02-12T20:20:02.688Z,75.80
2018-02-12T20:22:30.868Z,76.20
2018-02-12T20:24:59.012Z,76.30
2018-02-12T20:27:27.210Z,76.00
2018-02-12T20:29:55.353Z,75.80
2018-02-12T20:32:23.540Z,76.10
2018-02-12T20:34:51.715Z,76.60
2018-02-12T20:37:19.872Z,76.50
2018-02-12T20:39:48.076Z,76.40
2018-02-12T20:42:16.267Z,76.00
2018-02-12T20:44:45.265Z,76.40
2018-02-12T20:47:14.205Z,75.60
2018-02-12T20:49:42.383Z,75.60
2018-02-12T20:52:10.727Z,75.30
2018-02-12T20:54:39.704Z,75.20
2018-02-12T20:57:08.802Z,75.40
2018-02-12T20:59:36.964Z,75.40
2018-02-12T21:02:05.192Z,75.60
2018-02-12T21:04:33.543Z,74.90
2018-02-12T21:07:01.787Z,75.60
2018-02-12T21:15:49.676Z,73.90
2018-02-12T21:18:17.840Z,74.20
2018-02-12T21:20:46.756Z,73.50
2018-02-12T21:23:15.630Z,73.70
2018-02-12T21:25:44.577Z,74.20
2018-02-12T21:28:12.790Z,74.20
2018-02-12T21:30:42.212Z,73.20
2018-02-12T21:33:11.267Z,73.80
2018-02-12T21:35:40.212Z,74.30
2018-02-12T21:38:08.376Z,73.90
2018-02-12T21:40:36.604Z,73.90
2018-02-12T21:43:04.723Z,73.60
2018-02-12T21:45:32.875Z,73.80
2018-02-12T21:48:01.777Z,74.00
2018-02-12T21:50:30.866Z,73.70
2018-02-12T21:52:59.739Z,74.00
2018-02-12T21:55:28.624Z,74.00
2018-02-12T21:57:57.545Z,74.70
2018-02-12T22:00:25.717Z,74.70
2018-02-12T22:02:53.856Z,74.90
2018-02-12T22:05:22.759Z,75.50
2018-02-12T22:07:51.165Z,75.50
2018-02-12T22:10:19.270Z,75.40
2018-02-12T22:12:47.515Z,75.20
2018-02-12T22:15:15.633Z,75.40
2018-02-12T22:17:43.993Z,75.60
2018-02-12T22:20:12.102Z,76.00
2018-02-12T22:22:41.034Z,75.10
2018-02-12T22:25:09.186Z,75.20
2018-02-12T22:27:38.078Z,75.90
2018-02-12T22:30:06.184Z,75.90
2018-02-12T22:32:34.342Z,75.90
2018-02-12T22:35:02.457Z,75.80
2018-02-12T22:37:30.645Z,76.10
2018-02-12T22:39:59.659Z,76.30
2018-02-12T22:42:27.778Z,76.30
2018-02-12T22:44:56.045Z,76.30
2018-02-12T22:47:24.173Z,75.90
2018-02-12T22:49:52.355Z,76.30
2018-02-12T22:52:20.462Z,76.70
2018-02-12T22:54:48.607Z,76.30
2018-02-12T22:57:16.726Z,76.30
2018-02-12T22:59:44.849Z,76.40
2018-02-12T23:02:13.172Z,77.10
2018-02-12T23:04:41.342Z,76.90
2018-02-12T23:07:09.459Z,76.70
2018-02-12T23:09:37.586Z,76.70
2018-02-12T23:12:06.021Z,76.70
2018-02-12T23:14:34.165Z,77.00
2018-02-12T23:17:08.806Z,77.20
2018-02-12T23:19:37.185Z,77.10
2018-02-12T23:22:05.480Z,77.00
2018-02-12T23:24:33.568Z,76.90
2018-02-12T23:27:01.694Z,76.70
2018-02-12T23:29:29.855Z,76.50
2018-02-12T23:31:58.721Z,76.00
2018-02-12T23:34:26.869Z,76.00
2018-02-12T23:36:55.013Z,75.90
2018-02-12T23:39:23.107Z,76.50
2018-02-12T23:41:51.272Z,75.80
2018-02-12T23:44:19.364Z,75.90
2018-02-12T23:46:47.497Z,75.90
2018-02-12T23:49:15.613Z,76.00
2018-02-12T23:51:43.850Z,76.20
2018-02-12T23:54:23.759Z,75.90
2018-02-12T23:56:52.661Z,76.00
2018-02-12T23:59:21.536Z,75.60
